Time;durP1;ratioP1;P1;durP2;ratioP2;P2;SDS_P1;SDS_P2;PMS_P1;PMS_P2;Temp;Humidity;BMP_temperature;BMP_pressure;BME280_temperature;BME280_humidity;BME280_pressure;Samples;Min_cycle;Max_cycle;Signal;HPM_P1;HPM_P2
2023/12/26 00:00:20;;;;;;;30.40;6.90;;;;;;;8.85;74.29;98311.40;105232;1258;109843;-72
2023/12/26 00:03:08;;;;;;;12.00;2.80;;;;;;;8.84;74.38;98312.55;105511;1257;98250;-72
2023/12/26 00:05:36;;;;;;;17.30;4.00;;;;;;;8.83;74.21;98315.80;105543;1258;107615;-73
2023/12/26 00:08:07;;;;;;;10.10;3.10;;;;;;;8.82;74.26;98317.66;105392;1253;97638;-72
2023/12/26 00:10:35;;;;;;;16.40;4.40;;;;;;;8.81;74.35;98313.98;105452;1253;96631;-72
2023/12/26 00:13:04;;;;;;;19.80;5.60;;;;;;;8.81;74.43;98311.50;105427;1257;109908;-72
2023/12/26 00:15:32;;;;;;;25.20;8.80;;;;;;;8.82;74.44;98314.68;105778;1252;96609;-73
2023/12/26 00:17:59;;;;;;;15.10;4.80;;;;;;;8.82;74.51;98313.27;105504;1258;107667;-72
2023/12/26 00:20:27;;;;;;;7.90;3.20;;;;;;;8.82;74.47;98315.92;105504;1258;96672;-75
2023/12/26 00:22:55;;;;;;;11.80;3.40;;;;;;;8.81;74.57;98312.73;105567;1258;96613;-72
2023/12/26 00:25:24;;;;;;;9.80;3.70;;;;;;;8.82;74.47;98315.02;105391;1253;109904;-73
2023/12/26 00:27:51;;;;;;;5.30;2.70;;;;;;;8.83;74.68;98315.63;105228;1257;97800;-73
2023/12/26 00:30:19;;;;;;;8.30;3.40;;;;;;;8.83;74.48;98313.16;105552;1257;108307;-72
2023/12/26 00:32:47;;;;;;;7.40;3.00;;;;;;;8.85;74.64;98319.20;105461;1253;96652;-72
2023/12/26 00:35:15;;;;;;;6.50;2.50;;;;;;;8.86;74.56;98324.41;105398;1257;96519;-72
2023/12/26 00:37:43;;;;;;;8.60;2.90;;;;;;;8.87;74.60;98323.07;105486;1253;109575;-72
2023/12/26 00:40:12;;;;;;;7.00;2.30;;;;;;;8.88;74.60;98322.86;105154;1258;97980;-72
2023/12/26 00:42:40;;;;;;;9.20;3.20;;;;;;;8.89;74.57;98313.77;105522;1257;107203;-71
2023/12/26 00:45:08;;;;;;;9.60;3.10;;;;;;;8.89;74.70;98321.35;105721;1256;96594;-72
2023/12/26 00:47:36;;;;;;;8.20;2.70;;;;;;;8.89;74.63;98321.14;105624;1258;97991;-73
2023/12/26 00:50:05;;;;;;;5.50;2.20;;;;;;;8.87;74.70;98319.70;105595;1258;109761;-72
2023/12/26 00:52:33;;;;;;;6.00;2.40;;;;;;;8.87;74.75;98316.20;105543;1256;96596;-72
2023/12/26 00:55:01;;;;;;;5.50;2.50;;;;;;;8.85;74.84;98322.02;105313;1252;107577;-71
2023/12/26 00:57:29;;;;;;;8.40;2.30;;;;;;;8.81;74.75;98320.19;105551;1258;96690;-72
2023/12/26 00:59:57;;;;;;;6.50;2.50;;;;;;;8.77;74.73;98317.31;105627;1256;97830;-73
2023/12/26 01:02:25;;;;;;;6.30;2.10;;;;;;;8.73;74.71;98311.58;105253;1273;109348;-72
2023/12/26 01:04:53;;;;;;;10.20;3.40;;;;;;;8.69;74.88;98318.45;105448;1257;97814;-72
2023/12/26 01:07:21;;;;;;;4.30;2.20;;;;;;;8.65;74.87;98308.31;105475;1258;107460;-72
2023/12/26 01:09:49;;;;;;;5.20;2.40;;;;;;;8.63;74.92;98312.38;105141;1258;96623;-72
2023/12/26 01:12:17;;;;;;;6.30;2.80;;;;;;;8.61;74.79;98316.25;105225;1254;96719;-72
2023/12/26 01:14:45;;;;;;;5.30;2.50;;;;;;;8.59;74.81;98318.37;105539;1257;109995;-72
2023/12/26 01:17:13;;;;;;;6.20;2.10;;;;;;;8.55;74.88;98325.20;105090;1257;96653;-73
2023/12/26 01:19:41;;;;;;;8.70;3.40;;;;;;;8.53;74.90;98319.02;105480;1259;107694;-72
2023/12/26 01:22:09;;;;;;;6.50;2.10;;;;;;;8.49;74.89;98319.08;105418;1258;98374;-72
2023/12/26 01:24:37;;;;;;;6.00;2.10;;;;;;;8.46;74.90;98310.46;105487;1252;96601;-72
2023/12/26 01:27:05;;;;;;;5.80;2.20;;;;;;;8.44;74.97;98312.58;105424;1252;109939;-72
2023/12/26 01:29:33;;;;;;;7.00;2.40;;;;;;;8.41;75.03;98310.80;105496;1258;96546;-72
2023/12/26 01:32:01;;;;;;;9.20;2.60;;;;;;;8.39;75.14;98313.48;105665;1257;108814;-73
2023/12/26 01:34:29;;;;;;;4.80;2.30;;;;;;;8.37;75.01;98315.92;105715;1259;96601;-72
2023/12/26 01:36:57;;;;;;;3.80;2.30;;;;;;;8.34;75.18;98314.84;105429;1253;96672;-72
2023/12/26 01:39:26;;;;;;;5.60;2.30;;;;;;;8.32;75.15;98319.95;105564;1258;109448;-72
2023/12/26 01:41:54;;;;;;;7.00;2.80;;;;;;;8.31;75.09;98321.98;105380;1257;96576;-72
2023/12/26 01:44:22;;;;;;;4.30;2.00;;;;;;;8.27;75.10;98322.09;105263;1258;106678;-72
2023/12/26 01:46:50;;;;;;;3.40;1.60;;;;;;;8.25;75.17;98326.70;105419;1258;96620;-71
2023/12/26 01:49:19;;;;;;;5.70;1.70;;;;;;;8.22;75.34;98321.11;105337;1258;96768;-72
2023/12/26 01:51:48;;;;;;;3.90;2.30;;;;;;;8.20;75.31;98324.21;105494;1253;109088;-73
2023/12/26 01:54:16;;;;;;;3.50;2.00;;;;;;;8.18;75.36;98323.84;105371;1272;96525;-72
2023/12/26 01:56:47;;;;;;;4.20;2.20;;;;;;;8.15;75.45;98329.55;105203;1258;108331;-72
2023/12/26 01:59:15;;;;;;;1.70;1.60;;;;;;;8.14;75.43;98330.36;105350;1257;96735;-72
2023/12/26 02:01:43;;;;;;;6.70;2.30;;;;;;;8.12;75.40;98333.13;105230;1258;96597;-73
2023/12/26 02:04:12;;;;;;;4.30;2.40;;;;;;;8.11;75.53;98334.10;105406;1257;109948;-72
2023/12/26 02:06:40;;;;;;;6.60;3.00;;;;;;;8.11;75.65;98342.55;105436;1257;96610;-73
2023/12/26 02:09:10;;;;;;;5.30;2.60;;;;;;;8.11;75.69;98342.42;105376;1253;106453;-71
2023/12/26 02:11:39;;;;;;;6.20;2.50;;;;;;;8.11;75.72;98343.59;105502;1257;96721;-70
2023/12/26 02:14:09;;;;;;;5.60;2.80;;;;;;;8.12;75.86;98344.05;105445;1257;97171;-72
2023/12/26 02:16:41;;;;;;;6.20;2.50;;;;;;;8.13;75.91;98341.91;105312;1258;108749;-73
2023/12/26 02:19:09;;;;;;;9.20;3.30;;;;;;;8.13;75.88;98340.29;105409;1258;96690;-71
2023/12/26 02:21:37;;;;;;;11.50;4.20;;;;;;;8.13;76.01;98338.88;105566;1259;107615;-73
2023/12/26 02:24:05;;;;;;;9.30;3.70;;;;;;;8.14;76.06;98337.89;105590;1258;97549;-73
2023/12/26 02:26:38;;;;;;;7.30;3.30;;;;;;;8.16;76.04;98330.02;105586;1258;96619;-72
2023/12/26 02:29:06;;;;;;;12.40;4.30;;;;;;;8.17;76.02;98331.51;105585;1257;109494;-71
2023/12/26 02:31:36;;;;;;;11.00;3.90;;;;;;;8.17;76.12;98332.36;105321;1254;97996;-71
2023/12/26 02:34:05;;;;;;;11.40;3.60;;;;;;;8.19;76.26;98324.49;105132;1264;106785;-72
2023/12/26 02:36:34;;;;;;;9.20;3.60;;;;;;;8.20;76.27;98315.73;105448;1257;96564;-72
2023/12/26 02:39:02;;;;;;;11.20;4.20;;;;;;;8.20;76.23;98312.54;105410;1257;97577;-73
2023/12/26 02:41:30;;;;;;;12.30;5.30;;;;;;;8.22;76.16;98307.66;105159;1258;109852;-73
2023/12/26 02:43:58;;;;;;;15.10;6.50;;;;;;;8.22;76.24;98309.23;105071;1258;96603;-73
2023/12/26 02:46:25;;;;;;;16.40;6.90;;;;;;;8.22;76.23;98311.34;105378;1256;107689;-73
2023/12/26 02:48:53;;;;;;;16.90;7.80;;;;;;;8.24;76.31;98317.08;105275;1257;96525;-71
2023/12/26 02:51:22;;;;;;;18.20;8.20;;;;;;;8.25;76.46;98315.41;105135;1259;97918;-73
2023/12/26 02:53:51;;;;;;;19.80;9.20;;;;;;;8.26;76.38;98318.16;105412;1257;110003;-72
2023/12/26 02:56:19;;;;;;;19.70;8.80;;;;;;;8.26;76.58;98314.59;105370;1257;96707;-73
2023/12/26 02:58:47;;;;;;;17.90;8.60;;;;;;;8.26;76.50;98314.41;105607;1257;106963;-73
2023/12/26 03:01:15;;;;;;;18.70;8.70;;;;;;;8.26;76.60;98312.11;105549;1257;96637;-73
2023/12/26 03:03:43;;;;;;;18.80;8.30;;;;;;;8.25;76.68;98315.92;105336;1258;96617;-73
2023/12/26 03:06:11;;;;;;;18.60;8.80;;;;;;;8.25;76.69;98314.65;105392;1253;109270;-73
2023/12/26 03:08:39;;;;;;;15.20;7.20;;;;;;;8.27;76.52;98310.85;105441;1257;97985;-72
2023/12/26 03:11:07;;;;;;;18.20;8.00;;;;;;;8.27;76.55;98306.21;105534;1267;108090;-73
2023/12/26 03:13:35;;;;;;;20.30;8.90;;;;;;;8.27;76.72;98300.41;105178;1259;97536;-73
2023/12/26 03:16:03;;;;;;;22.10;10.00;;;;;;;8.26;76.95;98298.05;105382;1257;97560;-72
2023/12/26 03:18:31;;;;;;;20.70;9.60;;;;;;;8.23;76.74;98301.38;105457;1257;109982;-73
2023/12/26 03:20:59;;;;;;;18.50;8.70;;;;;;;8.23;76.85;98300.03;105154;1258;96751;-73
2023/12/26 03:23:27;;;;;;;19.00;8.70;;;;;;;8.21;76.89;98299.05;105257;1258;107462;-73
2023/12/26 03:25:55;;;;;;;17.90;8.00;;;;;;;8.20;76.88;98291.01;105120;1258;96610;-74
2023/12/26 03:28:23;;;;;;;20.20;8.50;;;;;;;8.20;76.97;98288.04;105324;1252;96637;-73
2023/12/26 03:30:51;;;;;;;16.60;7.60;;;;;;;8.20;76.85;98281.12;105620;1257;109794;-73
2023/12/26 03:33:19;;;;;;;16.90;7.20;;;;;;;8.21;77.03;98278.92;105441;1253;96697;-73
2023/12/26 03:35:47;;;;;;;16.30;7.20;;;;;;;8.20;77.00;98272.48;105232;1258;108497;-73
2023/12/26 03:38:15;;;;;;;16.70;6.90;;;;;;;8.19;76.90;98262.46;105443;1256;97512;-73
2023/12/26 03:40:43;;;;;;;16.30;6.90;;;;;;;8.18;76.92;98253.69;105478;1258;96637;-73
2023/12/26 03:43:11;;;;;;;15.40;6.10;;;;;;;8.19;76.97;98251.35;105485;1256;109411;-72
2023/12/26 03:45:39;;;;;;;11.80;5.70;;;;;;;8.19;76.97;98249.57;105413;1256;96606;-73
2023/12/26 03:48:07;;;;;;;13.60;5.60;;;;;;;8.19;76.93;98251.33;105332;1253;108975;-72
2023/12/26 03:50:36;;;;;;;12.30;5.20;;;;;;;8.18;76.99;98250.16;105538;1253;96606;-73
2023/12/26 03:53:04;;;;;;;11.30;4.10;;;;;;;8.18;77.14;98252.84;105331;1253;97124;-71
2023/12/26 03:55:31;;;;;;;9.90;4.10;;;;;;;8.18;77.08;98252.66;105506;1256;109925;-72
2023/12/26 03:57:59;;;;;;;7.90;3.70;;;;;;;8.17;77.17;98242.27;105400;1257;96554;-72
2023/12/26 04:00:30;;;;;;;7.70;3.70;;;;;;;8.16;77.18;98239.92;105680;1253;107645;-73
2023/12/26 04:02:58;;;;;;;8.40;3.90;;;;;;;8.16;77.31;98235.69;105577;1256;96629;-73
2023/12/26 04:05:26;;;;;;;8.10;3.70;;;;;;;8.16;77.43;98233.04;105457;1253;96605;-73
2023/12/26 04:07:54;;;;;;;8.90;4.10;;;;;;;8.15;77.55;98236.43;105149;1275;108896;-72
2023/12/26 04:10:22;;;;;;;7.70;3.70;;;;;;;8.14;77.63;98231.41;105177;1267;96598;-72
2023/12/26 04:12:50;;;;;;;6.60;3.20;;;;;;;8.14;77.83;98232.69;105451;1257;107598;-72
2023/12/26 04:15:18;;;;;;;6.60;3.50;;;;;;;8.14;77.79;98235.81;105278;1253;97511;-72
2023/12/26 04:17:46;;;;;;;7.90;4.00;;;;;;;8.14;77.71;98235.70;105390;1258;97932;-73
2023/12/26 04:20:15;;;;;;;5.50;3.00;;;;;;;8.14;77.82;98233.37;105163;1259;110001;-73
2023/12/26 04:22:43;;;;;;;9.40;3.80;;;;;;;8.14;77.85;98236.19;105415;1258;97564;-71
2023/12/26 04:25:10;;;;;;;9.50;4.00;;;;;;;8.14;78.03;98228.61;105230;1253;107732;-73
2023/12/26 04:27:38;;;;;;;7.50;3.60;;;;;;;8.14;77.95;98231.46;105421;1255;96546;-73
2023/12/26 04:30:07;;;;;;;10.10;4.10;;;;;;;8.13;78.31;98231.88;105449;1256;97558;-72
2023/12/26 04:32:35;;;;;;;10.90;3.80;;;;;;;8.12;78.19;98230.69;105266;1257;110083;-72
2023/12/26 04:35:04;;;;;;;8.20;3.90;;;;;;;8.13;78.15;98229.74;105424;1259;97859;-73
2023/12/26 04:37:32;;;;;;;10.20;3.70;;;;;;;8.14;77.89;98226.80;105125;1259;107323;-72
2023/12/26 04:40:00;;;;;;;9.90;3.80;;;;;;;8.15;77.91;98222.52;105406;1259;97196;-72
2023/12/26 04:42:28;;;;;;;8.00;3.30;;;;;;;8.17;77.74;98220.04;105474;1256;97938;-73
2023/12/26 04:44:56;;;;;;;8.00;3.40;;;;;;;8.19;77.96;98221.48;105370;1258;111022;-73
2023/12/26 04:47:24;;;;;;;10.40;3.60;;;;;;;8.21;78.13;98226.48;105050;1259;96613;-72
2023/12/26 04:49:52;;;;;;;11.40;3.50;;;;;;;8.22;77.87;98227.68;105063;1254;108049;-72
2023/12/26 04:52:20;;;;;;;9.00;3.10;;;;;;;8.22;77.94;98232.60;105165;1257;96618;-73
2023/12/26 04:54:48;;;;;;;6.40;3.10;;;;;;;8.23;78.12;98235.02;105257;1255;96728;-73
2023/12/26 04:57:17;;;;;;;10.40;3.20;;;;;;;8.23;78.20;98229.19;105146;1267;110510;-71
2023/12/26 04:59:45;;;;;;;12.20;3.70;;;;;;;8.23;77.99;98217.30;105232;1259;96631;-72
2023/12/26 05:02:13;;;;;;;7.70;3.20;;;;;;;8.22;78.05;98207.86;105362;1258;107645;-72
2023/12/26 05:04:41;;;;;;;5.90;2.90;;;;;;;8.22;78.05;98203.64;105426;1260;96714;-71
2023/12/26 05:07:08;;;;;;;6.30;2.90;;;;;;;8.21;77.97;98205.65;105158;1258;96637;-72
2023/12/26 05:09:37;;;;;;;8.80;3.10;;;;;;;8.21;77.83;98200.14;105278;1261;109888;-73
2023/12/26 05:12:06;;;;;;;8.30;3.20;;;;;;;8.22;77.88;98191.29;105350;1265;96630;-72
2023/12/26 05:14:34;;;;;;;7.10;3.10;;;;;;;8.22;77.81;98191.11;105395;1259;107155;-73
2023/12/26 05:17:02;;;;;;;10.70;3.30;;;;;;;8.19;77.86;98185.61;105124;1259;96591;-73
2023/12/26 05:19:30;;;;;;;6.10;3.30;;;;;;;8.18;77.77;98186.27;105358;1257;97622;-71
2023/12/26 05:21:58;;;;;;;7.40;3.00;;;;;;;8.18;77.79;98187.30;105022;1268;109107;-72
2023/12/26 05:24:27;;;;;;;6.10;2.60;;;;;;;8.18;77.75;98183.97;105546;1258;97452;-72
2023/12/26 05:26:57;;;;;;;5.90;2.60;;;;;;;8.15;77.68;98183.83;105299;1259;108021;-71
2023/12/26 05:29:25;;;;;;;7.20;3.10;;;;;;;8.14;77.62;98183.42;105469;1259;96598;-73
2023/12/26 05:31:52;;;;;;;7.30;2.90;;;;;;;8.11;77.74;98182.73;105158;1266;96617;-72
2023/12/26 05:34:20;;;;;;;8.00;3.40;;;;;;;8.11;77.66;98178.70;105133;1268;110015;-73
2023/12/26 05:36:48;;;;;;;6.70;2.60;;;;;;;8.09;77.53;98174.06;105177;1257;96640;-73
2023/12/26 05:39:16;;;;;;;6.20;3.10;;;;;;;8.08;77.61;98177.00;105497;1257;107707;-73
2023/12/26 05:41:44;;;;;;;7.80;3.40;;;;;;;8.07;77.62;98175.27;105157;1257;97482;-72
2023/12/26 05:44:12;;;;;;;18.70;7.10;;;;;;;8.06;77.57;98179.76;105346;1259;97966;-72
2023/12/26 05:46:42;;;;;;;10.80;3.60;;;;;;;8.05;77.60;98171.15;105537;1256;109836;-72
2023/12/26 05:49:10;;;;;;;8.10;3.40;;;;;;;8.06;77.43;98166.35;105353;1253;98133;-73
2023/12/26 05:51:39;;;;;;;9.80;3.60;;;;;;;8.07;77.50;98160.09;105614;1253;107587;-73
2023/12/26 05:54:06;;;;;;;5.10;2.60;;;;;;;8.08;77.58;98154.41;105597;1259;96628;-72
2023/12/26 05:56:37;;;;;;;5.60;2.90;;;;;;;8.08;77.50;98149.07;105575;1254;96610;-72
2023/12/26 05:59:05;;;;;;;7.00;2.50;;;;;;;8.09;77.63;98147.96;105303;1257;110087;-71
2023/12/26 06:01:33;;;;;;;9.30;2.70;;;;;;;8.09;77.57;98145.25;105654;1259;96537;-72
2023/12/26 06:04:01;;;;;;;7.00;2.90;;;;;;;8.10;77.50;98142.03;105364;1258;108026;-73
2023/12/26 06:06:29;;;;;;;12.30;4.10;;;;;;;8.11;77.32;98144.06;105522;1257;96658;-72
2023/12/26 06:08:57;;;;;;;11.80;4.20;;;;;;;8.11;77.32;98138.44;106650;1256;96598;-73
2023/12/26 06:11:25;;;;;;;8.50;3.30;;;;;;;8.10;77.30;98140.77;105532;1256;109279;-72
2023/12/26 06:13:53;;;;;;;7.80;3.10;;;;;;;8.11;77.26;98135.05;105510;1259;97752;-71
2023/12/26 06:16:21;;;;;;;4.60;2.20;;;;;;;8.12;77.39;98132.04;105265;1267;107625;-72
2023/12/26 06:18:49;;;;;;;3.90;2.30;;;;;;;8.12;77.32;98134.83;105444;1257;97377;-72
2023/12/26 06:21:17;;;;;;;5.00;2.60;;;;;;;8.13;77.45;98127.00;105267;1267;96530;-72
2023/12/26 06:23:45;;;;;;;4.30;2.40;;;;;;;8.13;77.24;98120.27;105260;1258;108956;-72
2023/12/26 06:26:12;;;;;;;5.70;2.50;;;;;;;8.13;77.32;98119.53;105236;1262;97849;-72
2023/12/26 06:28:40;;;;;;;4.30;2.40;;;;;;;8.14;77.29;98123.22;105375;1261;106355;-72
2023/12/26 06:31:13;;;;;;;7.80;2.80;;;;;;;8.15;77.38;98128.36;105182;1259;96714;-72
2023/12/26 06:33:42;;;;;;;;;;;;;;;8.17;77.22;98128.38;105447;1260;97939;-72
2023/12/26 06:36:10;;;;;;;8.10;3.60;;;;;;;8.16;77.34;98122.63;108661;1253;110038;-72
2023/12/26 06:38:38;;;;;;;6.60;3.50;;;;;;;8.18;77.28;98125.02;106704;1255;96552;-72
2023/12/26 06:41:08;;;;;;;9.70;3.80;;;;;;;8.19;77.17;98123.48;105502;1266;107215;-73
2023/12/26 06:43:36;;;;;;;9.50;4.10;;;;;;;8.22;77.26;98122.95;105331;1255;96573;-73
2023/12/26 06:46:04;;;;;;;6.90;3.00;;;;;;;8.24;77.16;98113.96;105118;1263;97917;-73
2023/12/26 06:48:32;;;;;;;5.30;2.90;;;;;;;8.26;77.12;98110.59;105182;1266;109877;-72
2023/12/26 06:51:04;;;;;;;6.00;2.80;;;;;;;8.28;76.86;98103.56;105525;1259;96575;-74
2023/12/26 06:53:32;;;;;;;7.40;3.40;;;;;;;8.29;77.03;98103.68;105362;1266;107632;-72
2023/12/26 06:56:00;;;;;;;8.30;3.20;;;;;;;8.30;77.04;98101.60;105216;1259;96633;-73
2023/12/26 06:58:28;;;;;;;5.20;2.80;;;;;;;8.32;76.94;98099.72;105480;1256;96639;-72
2023/12/26 07:00:56;;;;;;;8.20;3.00;;;;;;;8.33;76.95;98095.54;105450;1258;109749;-73
2023/12/26 07:03:24;;;;;;;9.50;3.20;;;;;;;8.35;76.90;98095.75;105607;1256;96598;-72
2023/12/26 07:05:52;;;;;;;6.50;2.90;;;;;;;8.37;76.91;98096.33;105454;1255;107563;-73
2023/12/26 07:08:21;;;;;;;6.20;2.90;;;;;;;8.37;76.50;98095.79;105251;1260;96607;-72
2023/12/26 07:10:49;;;;;;;5.10;2.80;;;;;;;8.38;76.71;98094.50;105516;1257;96597;-72
2023/12/26 07:13:18;;;;;;;5.50;2.70;;;;;;;8.37;76.59;98093.09;105325;1256;109752;-76
2023/12/26 07:15:46;;;;;;;6.30;3.30;;;;;;;8.37;76.56;98102.37;105499;1257;97833;-73
2023/12/26 07:18:14;;;;;;;5.50;2.60;;;;;;;8.36;76.64;98101.86;105396;1258;107755;-71
2023/12/26 07:20:42;;;;;;;7.20;3.00;;;;;;;8.36;76.69;98095.50;105290;1257;96685;-73
2023/12/26 07:23:10;;;;;;;9.40;3.60;;;;;;;8.37;76.38;98095.60;105635;1268;97818;-74
2023/12/26 07:25:38;;;;;;;7.80;3.50;;;;;;;8.38;76.35;98091.65;105285;1257;109537;-74
2023/12/26 07:28:06;;;;;;;6.00;3.10;;;;;;;8.39;76.44;98097.77;105521;1266;96604;-74
2023/12/26 07:30:34;;;;;;;8.00;3.30;;;;;;;8.38;76.38;98096.75;105462;1258;108415;-74
2023/12/26 07:33:02;;;;;;;8.00;3.10;;;;;;;8.38;76.62;98098.02;105558;1259;96616;-75
2023/12/26 07:35:36;;;;;;;6.70;3.20;;;;;;;8.37;76.47;98092.98;105548;1257;97430;-74
2023/12/26 07:38:04;;;;;;;9.60;3.90;;;;;;;8.37;76.34;98095.08;105475;1258;109739;-74
2023/12/26 07:40:33;;;;;;;14.90;5.40;;;;;;;8.36;76.34;98098.86;105428;1266;96600;-76
2023/12/26 07:43:00;;;;;;;9.40;4.40;;;;;;;8.34;76.40;98102.89;105260;1254;107126;-74
2023/12/26 07:45:28;;;;;;;9.30;3.80;;;;;;;8.33;76.28;98101.04;105411;1255;96518;-75
2023/12/26 07:47:56;;;;;;;8.10;3.50;;;;;;;8.30;76.44;98103.18;105327;1269;97447;-74
2023/12/26 07:50:26;;;;;;;11.30;4.30;;;;;;;8.30;76.40;98105.13;105592;1252;109951;-74
2023/12/26 07:52:54;;;;;;;14.10;5.90;;;;;;;8.31;76.49;98110.52;105758;1266;96687;-76
2023/12/26 07:55:22;;;;;;;16.40;6.00;;;;;;;8.31;76.17;98115.32;105473;1253;106202;-77
2023/12/26 07:57:51;;;;;;;14.70;4.70;;;;;;;8.31;76.18;98113.76;105627;1266;96745;-75
2023/12/26 08:00:20;;;;;;;8.80;3.60;;;;;;;8.33;76.40;98114.31;105688;1254;96700;-76
2023/12/26 08:02:48;;;;;;;13.10;5.20;;;;;;;8.36;76.45;98115.31;105594;1257;109568;-75
2023/12/26 08:05:16;;;;;;;12.10;4.30;;;;;;;8.38;76.46;98113.52;105305;1257;97539;-75
2023/12/26 08:07:44;;;;;;;10.50;4.10;;;;;;;8.41;76.36;98107.67;105560;1268;107102;-73
2023/12/26 08:10:12;;;;;;;9.30;4.00;;;;;;;8.43;76.26;98107.52;105489;1257;96642;-74
2023/12/26 08:12:40;;;;;;;11.20;4.20;;;;;;;8.45;76.37;98114.41;105497;1257;96724;-75
2023/12/26 08:15:12;;;;;;;9.00;3.80;;;;;;;8.47;76.55;98122.55;105203;1254;109682;-81
2023/12/26 08:17:40;;;;;;;8.70;4.10;;;;;;;8.49;76.30;98122.76;105312;1267;97535;-80
2023/12/26 08:20:08;;;;;;;7.40;3.90;;;;;;;8.51;76.16;98121.59;105186;1255;107690;-78
2023/12/26 08:22:36;;;;;;;8.10;3.70;;;;;;;8.53;76.21;98121.98;105434;1266;96718;-77
2023/12/26 08:25:05;;;;;;;9.00;3.80;;;;;;;8.55;76.40;98126.01;105368;1262;96704;-77
2023/12/26 08:27:33;;;;;;;8.90;3.80;;;;;;;8.58;76.13;98127.73;105390;1260;109558;-78
2023/12/26 08:30:01;;;;;;;8.70;3.70;;;;;;;8.60;76.38;98132.31;105645;1254;97884;-74
2023/12/26 08:32:29;;;;;;;8.50;3.80;;;;;;;8.63;76.08;98132.48;105476;1253;107707;-75
2023/12/26 08:34:59;;;;;;;8.30;3.90;;;;;;;8.65;75.97;98137.09;105436;1257;97973;-76
2023/12/26 08:37:30;;;;;;;12.00;4.50;;;;;;;8.67;76.20;98136.06;105331;1266;96635;-75
2023/12/26 08:39:59;;;;;;;11.60;4.60;;;;;;;8.69;76.06;98140.67;105475;1256;110003;-80
2023/12/26 08:42:27;;;;;;;11.00;4.30;;;;;;;8.70;76.13;98142.68;105182;1258;96629;-78
2023/12/26 08:44:55;;;;;;;13.00;4.20;;;;;;;8.72;76.25;98143.42;105267;1267;107321;-78
2023/12/26 08:47:23;;;;;;;10.80;4.10;;;;;;;8.75;76.11;98143.56;105169;1254;96672;-79
2023/12/26 08:49:53;;;;;;;8.00;4.10;;;;;;;8.78;76.20;98150.91;105449;1258;96541;-81
2023/12/26 08:52:21;;;;;;;11.30;4.20;;;;;;;8.82;76.00;98149.39;105613;1266;109779;-78
2023/12/26 08:54:50;;;;;;;10.40;4.50;;;;;;;8.85;76.05;98149.67;105421;1266;96535;-78
2023/12/26 08:57:18;;;;;;;11.80;4.70;;;;;;;8.88;76.02;98150.13;105520;1254;107162;-78
2023/12/26 08:59:48;;;;;;;11.00;4.80;;;;;;;8.88;75.61;98153.23;105431;1256;97786;-79
2023/12/26 09:02:16;;;;;;;9.70;4.50;;;;;;;8.90;76.00;98163.17;105484;1255;96710;-78
2023/12/26 09:04:47;;;;;;;11.30;4.60;;;;;;;8.93;75.91;98157.14;105542;1255;109884;-78
2023/12/26 09:07:18;;;;;;;9.60;4.10;;;;;;;8.95;75.85;98158.92;105265;1256;97793;-79
2023/12/26 09:09:46;;;;;;;9.70;4.50;;;;;;;8.97;76.06;98161.05;105266;1258;107279;-79
2023/12/26 09:12:14;;;;;;;13.00;5.70;;;;;;;8.99;75.82;98163.73;105274;1253;96544;-77
2023/12/26 09:14:42;;;;;;;11.20;4.50;;;;;;;9.01;75.83;98156.66;105605;1257;96614;-78
2023/12/26 09:17:10;;;;;;;17.00;6.50;;;;;;;9.03;75.90;98157.06;105331;1260;109937;-76
2023/12/26 09:19:41;;;;;;;13.00;5.50;;;;;;;9.04;75.80;98158.70;105270;1264;96629;-78
2023/12/26 09:22:09;;;;;;;11.40;4.90;;;;;;;9.06;75.70;98157.99;105432;1266;107172;-76
2023/12/26 09:24:37;;;;;;;10.50;4.50;;;;;;;9.08;75.60;98149.04;105301;1254;97925;-75
2023/12/26 09:27:05;;;;;;;12.30;4.50;;;;;;;9.12;75.95;98151.55;105229;1256;97837;-75
2023/12/26 09:29:36;;;;;;;15.40;5.50;;;;;;;9.16;75.94;98159.33;105569;1257;109766;-74
2023/12/26 09:32:04;;;;;;;11.40;4.80;;;;;;;9.22;75.89;98153.89;105207;1254;97099;-73
2023/12/26 09:34:32;;;;;;;13.40;5.70;;;;;;;9.27;76.00;98154.95;105206;1255;106250;-75
2023/12/26 09:37:00;;;;;;;11.80;4.80;;;;;;;9.30;75.59;98158.80;105417;1260;97531;-74
2023/12/26 09:39:28;;;;;;;12.70;4.60;;;;;;;9.31;75.58;98157.62;105334;1257;96623;-74
2023/12/26 09:42:00;;;;;;;15.20;5.10;;;;;;;9.33;75.63;98160.11;105700;1254;109963;-75
2023/12/26 09:44:31;;;;;;;14.00;5.00;;;;;;;9.34;75.36;98159.34;105428;1257;96619;-75
2023/12/26 09:46:59;;;;;;;15.80;5.90;;;;;;;9.35;75.71;98159.41;105307;1268;108086;-73
2023/12/26 09:49:27;;;;;;;15.20;5.70;;;;;;;9.37;75.51;98150.21;105611;1254;97855;-74
2023/12/26 09:51:59;;;;;;;20.00;6.20;;;;;;;9.39;75.59;98153.58;105478;1258;97628;-75
2023/12/26 09:54:30;;;;;;;19.90;6.60;;;;;;;9.41;75.47;98154.84;105266;1257;109870;-74
2023/12/26 09:56:59;;;;;;;13.00;5.30;;;;;;;9.44;75.35;98153.89;105607;1257;97548;-74
2023/12/26 09:59:27;;;;;;;17.50;5.30;;;;;;;9.46;75.25;98158.17;105535;1258;107785;-75
2023/12/26 10:01:57;;;;;;;17.50;5.90;;;;;;;9.48;75.55;98156.39;105769;1266;97821;-74
2023/12/26 10:04:25;;;;;;;14.80;6.00;;;;;;;9.52;75.45;98154.64;105457;1257;96574;-75
2023/12/26 10:06:53;;;;;;;13.90;5.10;;;;;;;9.56;75.17;98150.42;105243;1257;109969;-76
2023/12/26 10:09:22;;;;;;;15.20;5.80;;;;;;;9.62;75.38;98151.20;105439;1253;96625;-75
2023/12/26 10:11:52;;;;;;;16.70;6.00;;;;;;;9.65;75.34;98152.13;105299;1258;107466;-74
2023/12/26 10:14:30;;;;;;;14.50;5.40;;;;;;;9.71;75.17;98149.77;105523;1256;96678;-74
2023/12/26 10:17:06;;;;;;;17.10;6.80;;;;;;;9.74;75.05;98144.73;105323;1254;96584;-74
2023/12/26 10:19:34;;;;;;;17.00;6.50;;;;;;;9.77;75.42;98149.29;105081;1260;109879;-75
2023/12/26 10:22:03;;;;;;;18.20;6.10;;;;;;;9.79;75.08;98147.08;105517;1254;97947;-73
2023/12/26 10:24:32;;;;;;;13.60;5.20;;;;;;;9.82;75.23;98145.29;105588;1257;107792;-75
2023/12/26 10:27:00;;;;;;;14.60;5.50;;;;;;;9.84;75.43;98147.73;105422;1256;98077;-74
2023/12/26 10:29:28;;;;;;;14.70;5.20;;;;;;;9.86;74.97;98139.27;105592;1253;96584;-74
2023/12/26 10:32:01;;;;;;;14.70;5.70;;;;;;;9.87;75.16;98136.71;105417;1257;109818;-74
2023/12/26 10:34:29;;;;;;;18.80;6.90;;;;;;;9.89;74.90;98143.63;105289;1268;97964;-73
2023/12/26 10:36:58;;;;;;;18.10;6.20;;;;;;;9.90;75.05;98143.86;105354;1257;107773;-75
2023/12/26 10:39:28;;;;;;;12.30;5.00;;;;;;;9.92;75.11;98144.95;105182;1257;96615;-74
2023/12/26 10:41:57;;;;;;;17.40;5.70;;;;;;;9.95;74.95;98146.15;105589;1257;97341;-73
2023/12/26 10:44:27;;;;;;;17.30;6.60;;;;;;;9.96;75.03;98149.19;105686;1255;108188;-73
2023/12/26 10:46:56;;;;;;;20.20;6.90;;;;;;;10.00;75.12;98152.75;105391;1257;96632;-74
2023/12/26 10:49:26;;;;;;;20.70;8.40;;;;;;;10.02;74.74;98151.36;105410;1254;108031;-75
2023/12/26 10:51:59;;;;;;;18.20;6.40;;;;;;;10.04;74.83;98150.90;105503;1257;96719;-74
2023/12/26 10:54:28;;;;;;;18.50;5.90;;;;;;;10.05;74.48;98153.42;105483;1257;96504;-77
2023/12/26 10:56:58;;;;;;;16.20;5.90;;;;;;;10.05;74.29;98153.39;105558;1257;109779;-75
2023/12/26 10:59:26;;;;;;;12.30;5.20;;;;;;;10.05;74.35;98152.92;105483;1257;97612;-76
2023/12/26 11:03:35;;;;;;;15.20;5.40;;;;;;;10.06;74.64;98159.52;102246;1294;636519;-75
2023/12/26 11:06:04;;;;;;;14.50;5.50;;;;;;;10.06;74.69;98160.79;104854;1269;94520;-75
2023/12/26 11:08:32;;;;;;;13.40;5.40;;;;;;;10.08;74.34;98154.73;104714;1267;94327;-74
2023/12/26 11:11:00;;;;;;;16.80;5.90;;;;;;;10.12;74.85;98157.27;104625;1270;107217;-74
2023/12/26 11:13:28;;;;;;;12.10;4.70;;;;;;;10.17;75.00;98155.45;104620;1267;96077;-75
2023/12/26 11:15:56;;;;;;;13.10;5.00;;;;;;;10.21;74.75;98158.27;104823;1267;107229;-75
2023/12/26 11:18:25;;;;;;;15.00;5.80;;;;;;;10.22;74.65;98163.48;104739;1264;114289;-73
2023/12/26 11:20:54;;;;;;;11.50;4.90;;;;;;;10.22;74.44;98168.42;104596;1270;94245;-74
2023/12/26 11:23:23;;;;;;;16.00;6.40;;;;;;;10.22;74.41;98170.80;104919;1263;105703;-74
2023/12/26 11:25:53;;;;;;;16.80;6.40;;;;;;;10.20;74.34;98167.57;104913;1264;95545;-75
2023/12/26 11:28:22;;;;;;;17.40;6.50;;;;;;;10.19;74.47;98171.73;104671;1264;109464;-73
2023/12/26 11:30:52;;;;;;;16.50;6.50;;;;;;;10.19;74.55;98171.77;104910;1266;95278;-70
2023/12/26 11:33:23;;;;;;;19.40;7.30;;;;;;;10.19;74.19;98168.05;104832;1264;95266;-72